Time;durP1;ratioP1;P1;durP2;ratioP2;P2;SDS_P1;SDS_P2;PMS_P1;PMS_P2;Temp;Humidity;BMP_temperature;BMP_pressure;BME280_temperature;BME280_humidity;BME280_pressure;Samples;Min_cycle;Max_cycle;Signal;HPM_P1;HPM_P2
2021/08/31 00:00:03;;;;;;;45.78;24.10;;;;;;;21.57;66.04;99037.16;4972733;28;20640;-70
2021/08/31 00:02:30;;;;;;;39.85;24.10;;;;;;;21.56;65.99;99030.81;4999044;28;20068;-70
2021/08/31 00:04:58;;;;;;;33.25;22.75;;;;;;;21.42;66.02;99022.19;4998507;28;20141;-70
2021/08/31 00:07:24;;;;;;;40.25;22.80;;;;;;;21.48;66.11;99049.34;4986173;28;20046;-69
2021/08/31 00:09:50;;;;;;;39.10;24.15;;;;;;;21.43;66.32;99044.06;4982248;28;20137;-69
2021/08/31 00:12:16;;;;;;;39.90;23.75;;;;;;;21.44;66.01;99056.78;4998472;28;20050;-70
2021/08/31 00:14:44;;;;;;;48.00;24.60;;;;;;;21.46;66.26;99067.53;4985871;28;20053;-70
2021/08/31 00:17:10;;;;;;;40.10;23.48;;;;;;;21.45;66.16;99069.50;4990334;28;20408;-70
2021/08/31 00:19:38;;;;;;;37.83;23.80;;;;;;;21.47;66.36;99066.38;4980536;28;20042;-70
2021/08/31 00:22:04;;;;;;;43.60;25.30;;;;;;;21.48;66.01;99071.56;5002909;28;20140;-69
2021/08/31 00:24:33;;;;;;;48.22;24.55;;;;;;;21.48;66.25;99054.91;5002967;28;20038;-69
2021/08/31 00:27:06;;;;;;;45.47;24.73;;;;;;;21.44;66.28;99042.09;5002946;28;20046;-69
2021/08/31 00:29:33;;;;;;;47.10;26.30;;;;;;;21.50;65.89;99052.53;4984154;28;20561;-70
2021/08/31 00:32:00;;;;;;;53.20;27.13;;;;;;;21.31;66.25;99020.00;4984097;28;20572;-68
2021/08/31 00:34:26;;;;;;;49.22;26.98;;;;;;;21.50;66.10;99043.38;4967349;28;20545;-69
2021/08/31 00:36:52;;;;;;;43.20;26.80;;;;;;;21.42;66.22;99031.31;4997794;28;20042;-70
2021/08/31 00:39:19;;;;;;;46.70;26.75;;;;;;;21.23;66.35;99012.69;4952586;28;20053;-70
2021/08/31 00:41:47;;;;;;;54.78;28.08;;;;;;;21.33;66.31;99023.22;4969045;28;20507;-70
2021/08/31 00:44:20;;;;;;;58.70;28.30;;;;;;;21.27;66.25;99015.53;5001567;28;20038;-70
2021/08/31 00:46:46;;;;;;;51.53;28.33;;;;;;;21.49;66.33;99034.25;4998316;28;20056;-70
2021/08/31 00:49:13;;;;;;;53.23;28.87;;;;;;;21.34;66.39;99024.81;5000913;28;20137;-71
2021/08/31 00:51:48;;;;;;;47.85;27.77;;;;;;;21.32;66.13;99024.38;4967616;28;20071;-71
2021/08/31 00:54:16;;;;;;;43.35;27.42;;;;;;;21.48;66.27;99054.06;4996109;28;20052;-70
2021/08/31 00:56:43;;;;;;;45.33;27.58;;;;;;;21.43;66.24;99055.16;4987702;28;20058;-71
2021/08/31 00:59:09;;;;;;;47.75;28.00;;;;;;;21.50;66.33;99058.09;4980804;28;20050;-70
2021/08/31 01:01:37;;;;;;;50.50;29.45;;;;;;;21.49;66.16;99050.13;4998955;28;20062;-72
2021/08/31 01:04:04;;;;;;;45.85;29.20;;;;;;;21.39;66.11;99055.13;4984767;28;20426;-69
2021/08/31 01:06:33;;;;;;;52.40;30.52;;;;;;;21.41;66.24;99057.50;4984266;28;20041;-70
2021/08/31 01:08:59;;;;;;;42.88;27.08;;;;;;;21.30;66.25;99048.16;5001781;28;20057;-70
2021/08/31 01:11:25;;;;;;;50.30;29.10;;;;;;;21.35;66.50;99054.22;4985577;28;20415;-70
2021/08/31 01:13:52;;;;;;;53.63;28.30;;;;;;;21.41;66.29;99060.28;5001210;28;20081;-70
2021/08/31 01:16:18;;;;;;;46.17;28.80;;;;;;;21.35;65.96;99061.78;5002791;28;20062;-70
2021/08/31 01:18:44;;;;;;;44.58;27.55;;;;;;;21.35;66.47;99061.78;4983387;28;20404;-70
2021/08/31 01:21:11;;;;;;;45.92;27.42;;;;;;;21.35;66.08;99047.88;4985291;28;20050;-70
2021/08/31 01:23:39;;;;;;;42.85;29.15;;;;;;;21.34;66.07;99047.06;5001192;28;20046;-70
2021/08/31 01:26:06;;;;;;;49.97;27.42;;;;;;;21.25;65.85;99036.16;4962957;28;20049;-70
2021/08/31 01:28:35;;;;;;;45.85;27.30;;;;;;;21.32;66.24;99052.19;5000628;28;20049;-70
2021/08/31 01:31:03;;;;;;;51.40;27.00;;;;;;;21.30;66.10;99060.09;5000725;28;20066;-68
2021/08/31 01:33:31;;;;;;;41.75;26.88;;;;;;;21.29;66.08;99049.31;5002719;28;20050;-69
2021/08/31 01:35:57;;;;;;;49.55;28.38;;;;;;;21.26;66.10;99056.44;5001215;28;20173;-69
2021/08/31 01:38:24;;;;;;;39.63;25.53;;;;;;;21.29;65.93;99066.81;4953702;28;20066;-70
2021/08/31 01:40:50;;;;;;;45.03;26.42;;;;;;;21.21;65.86;99045.59;4969161;28;20301;-69
2021/08/31 01:43:22;;;;;;;42.08;26.02;;;;;;;21.18;65.87;99044.38;5001599;28;20161;-70
2021/08/31 01:45:49;;;;;;;42.67;26.00;;;;;;;21.22;65.84;99052.75;5002302;28;20062;-70
2021/08/31 01:48:15;;;;;;;44.05;25.55;;;;;;;21.19;66.21;99064.59;4984707;28;20054;-70
2021/08/31 01:50:41;;;;;;;45.17;26.13;;;;;;;21.10;66.07;99054.53;5002530;28;20041;-69
2021/08/31 01:53:08;;;;;;;41.92;25.40;;;;;;;21.20;65.95;99055.09;4980539;28;20054;-68
2021/08/31 01:55:34;;;;;;;42.90;25.80;;;;;;;21.13;66.11;99041.84;4984315;28;20042;-70
2021/08/31 01:58:00;;;;;;;45.57;27.20;;;;;;;21.09;66.07;99044.56;4968305;28;20498;-69
2021/08/31 02:00:28;;;;;;;44.00;27.25;;;;;;;21.08;66.03;99042.16;5002559;28;20057;-69
2021/08/31 02:02:54;;;;;;;48.78;29.50;;;;;;;21.06;66.15;99038.94;4999860;28;20050;-68
2021/08/31 02:05:21;;;;;;;42.30;28.65;;;;;;;21.10;65.69;99048.16;4976225;28;20050;-69
2021/08/31 02:07:47;;;;;;;47.28;28.27;;;;;;;21.05;65.98;99051.22;4983307;28;20418;-69
2021/08/31 02:10:13;;;;;;;52.78;30.15;;;;;;;21.08;65.76;99062.41;4992205;28;20046;-69
2021/08/31 02:12:39;;;;;;;45.88;30.10;;;;;;;21.12;65.66;99065.25;4967426;28;20511;-70
2021/08/31 02:15:06;;;;;;;47.28;29.60;;;;;;;21.10;65.83;99051.75;4992052;28;20421;-70
2021/08/31 02:17:35;;;;;;;48.67;29.15;;;;;;;21.07;65.82;99060.81;5000295;28;20042;-70
2021/08/31 02:20:02;;;;;;;49.47;29.75;;;;;;;21.09;65.55;99064.03;4999849;28;20084;-70
2021/08/31 02:22:28;;;;;;;53.75;30.20;;;;;;;21.06;65.59;99072.28;4999035;28;20104;-70
2021/08/31 02:24:54;;;;;;;47.58;30.95;;;;;;;21.06;65.50;99075.84;5001427;28;20582;-70
2021/08/31 02:27:25;;;;;;;47.85;29.95;;;;;;;20.80;65.55;99021.72;4983144;28;20057;-69
2021/08/31 02:29:52;;;;;;;45.85;29.52;;;;;;;21.08;65.71;99067.97;4983594;28;20050;-68
2021/08/31 02:32:18;;;;;;;50.85;29.42;;;;;;;21.06;65.58;99064.72;4967952;28;20451;-69
2021/08/31 02:34:45;;;;;;;47.63;28.88;;;;;;;20.92;65.52;99042.22;5000511;28;20074;-69
2021/08/31 02:37:12;;;;;;;47.47;30.55;;;;;;;20.97;65.32;99055.81;4944579;28;20479;-68
2021/08/31 02:39:38;;;;;;;51.55;31.52;;;;;;;20.99;65.55;99066.56;4967390;28;20058;-69
2021/08/31 02:42:04;;;;;;;49.60;32.60;;;;;;;20.94;65.83;99067.66;4983703;28;20086;-69
2021/08/31 02:44:30;;;;;;;55.67;33.17;;;;;;;20.96;65.56;99071.66;4983149;28;20676;-69
2021/08/31 02:46:56;;;;;;;52.20;33.83;;;;;;;20.88;65.74;99064.34;4966915;28;20052;-70
2021/08/31 02:49:23;;;;;;;61.88;35.17;;;;;;;20.91;65.61;99073.94;4987342;28;20343;-70
2021/08/31 02:51:50;;;;;;;56.78;35.15;;;;;;;20.90;65.49;99077.88;5000523;28;20081;-69
2021/08/31 02:54:16;;;;;;;53.33;35.72;;;;;;;20.89;65.63;99073.47;4999814;28;20050;-69
2021/08/31 02:56:42;;;;;;;57.20;37.17;;;;;;;20.86;65.82;99083.38;4999674;28;20042;-69
2021/08/31 02:59:08;;;;;;;62.80;38.23;;;;;;;20.67;65.85;99057.09;4983820;28;20081;-69
2021/08/31 03:01:38;;;;;;;61.88;36.70;;;;;;;20.89;65.35;99076.25;4951289;28;20053;-68
2021/08/31 03:04:05;;;;;;;57.10;36.40;;;;;;;20.70;65.49;99041.69;4966568;28;20549;-69
2021/08/31 03:06:32;;;;;;;61.33;38.97;;;;;;;20.87;65.73;99082.19;4999290;28;20054;-69
2021/08/31 03:09:01;;;;;;;64.13;39.03;;;;;;;20.81;65.58;99075.28;4999352;28;20255;-69
2021/08/31 03:11:27;;;;;;;59.42;36.85;;;;;;;20.89;65.75;99074.31;5000603;28;20047;-69
2021/08/31 03:13:54;;;;;;;51.80;33.63;;;;;;;20.69;65.33;99046.47;4999626;28;20085;-70
2021/08/31 03:16:20;;;;;;;46.58;30.13;;;;;;;20.85;65.60;99080.94;4982643;28;20054;-70
2021/08/31 03:18:48;;;;;;;48.90;29.95;;;;;;;20.86;65.54;99080.59;4967271;28;20069;-70
2021/08/31 03:21:14;;;;;;;49.80;27.83;;;;;;;20.86;65.69;99088.91;4958384;28;20050;-69
2021/08/31 03:23:40;;;;;;;44.90;27.33;;;;;;;20.58;65.35;99050.13;4966293;28;20057;-70
2021/08/31 03:26:11;;;;;;;44.92;26.45;;;;;;;20.66;65.27;99074.13;4968040;28;20042;-69
2021/08/31 03:28:38;;;;;;;43.05;26.65;;;;;;;20.77;65.45;99088.28;4963528;28;20533;-71
2021/08/31 03:31:04;;;;;;;46.13;28.25;;;;;;;20.72;65.19;99069.91;4981513;28;20065;-70
2021/08/31 03:33:33;;;;;;;48.30;27.42;;;;;;;20.36;65.03;99025.44;4958213;28;20494;-70
2021/08/31 03:36:04;;;;;;;47.47;28.77;;;;;;;20.78;65.30;99093.47;4973677;28;20049;-69
2021/08/31 03:38:30;;;;;;;45.28;26.85;;;;;;;20.73;65.08;99079.06;4971802;28;20050;-67
2021/08/31 03:40:56;;;;;;;43.40;27.80;;;;;;;20.75;65.29;99088.63;4999567;28;20051;-67
2021/08/31 03:43:24;;;;;;;43.42;27.42;;;;;;;20.71;65.29;99070.28;4999784;28;20037;-68
2021/08/31 03:45:50;;;;;;;40.55;24.58;;;;;;;20.78;65.24;99070.44;5000012;28;20502;-69
2021/08/31 03:48:16;;;;;;;41.88;24.45;;;;;;;20.76;65.41;99056.94;4950173;28;20049;-68
2021/08/31 03:50:42;;;;;;;40.90;22.75;;;;;;;20.87;65.24;99053.59;4999713;28;20497;-69
2021/08/31 03:53:08;;;;;;;40.28;22.75;;;;;;;20.87;65.39;99054.41;4990648;28;20050;-69
2021/08/31 03:55:37;;;;;;;37.97;22.15;;;;;;;20.87;65.29;99048.03;4998451;28;20047;-69
2021/08/31 03:58:06;;;;;;;37.72;21.63;;;;;;;20.87;65.54;99059.16;4964038;28;20050;-71
2021/08/31 04:00:34;;;;;;;37.20;21.75;;;;;;;20.86;65.15;99063.09;4957788;28;20081;-69
2021/08/31 04:03:00;;;;;;;42.13;22.55;;;;;;;20.81;65.04;99064.19;4998145;28;20105;-70
2021/08/31 04:05:27;;;;;;;40.72;22.13;;;;;;;20.42;64.96;99014.09;4998527;28;20486;-69
2021/08/31 04:07:53;;;;;;;34.33;20.73;;;;;;;20.46;64.79;99018.56;4970789;28;20046;-69
2021/08/31 04:10:19;;;;;;;42.85;22.38;;;;;;;20.65;64.70;99042.78;4974495;28;20050;-70
2021/08/31 04:12:47;;;;;;;39.05;21.77;;;;;;;20.81;64.74;99058.63;4981637;28;20053;-69
2021/08/31 04:15:13;;;;;;;40.58;21.75;;;;;;;20.76;64.58;99045.00;4966106;28;20138;-70
2021/08/31 04:17:42;;;;;;;38.83;21.58;;;;;;;20.76;64.60;99036.66;4999038;28;20107;-67
2021/08/31 04:20:10;;;;;;;43.10;22.65;;;;;;;20.66;64.93;99022.16;4981923;28;20541;-69
2021/08/31 04:22:35;;;;;;;;;;;;;;;20.93;64.64;99049.38;5000064;28;20065;-69
2021/08/31 04:25:02;;;;;;;34.20;21.10;;;;;;;20.74;64.75;99022.34;4981988;28;19925;-69
2021/08/31 04:27:28;;;;;;;37.13;22.40;;;;;;;20.87;64.63;99043.31;4998233;28;20070;-68
2021/08/31 04:29:54;;;;;;;37.53;23.63;;;;;;;20.50;64.53;98977.78;4999852;28;20050;-71
2021/08/31 04:32:21;;;;;;;36.20;23.40;;;;;;;20.43;64.41;98966.50;4999305;28;20465;-71
2021/08/31 04:34:55;;;;;;;48.20;22.47;;;;;;;20.53;64.29;98990.94;4985156;28;20073;-68
2021/08/31 04:37:22;;;;;;;42.38;23.17;;;;;;;20.90;64.15;99045.34;4979760;28;20315;-68
2021/08/31 04:39:51;;;;;;;40.85;23.08;;;;;;;20.92;64.07;99053.34;4988488;28;20592;-69
2021/08/31 04:42:17;;;;;;;42.17;21.90;;;;;;;20.73;63.85;99012.41;4980345;28;20051;-68
2021/08/31 04:44:43;;;;;;;38.22;22.33;;;;;;;20.58;63.89;98989.88;5000543;28;20077;-69
2021/08/31 04:47:09;;;;;;;33.45;21.55;;;;;;;20.71;63.71;98998.09;4964101;28;20499;-68
2021/08/31 04:49:35;;;;;;;34.75;20.50;;;;;;;20.91;63.94;99024.72;4981068;28;20092;-70
2021/08/31 04:52:04;;;;;;;36.63;22.23;;;;;;;20.86;63.64;99013.91;4965303;28;20077;-69
2021/08/31 04:54:30;;;;;;;39.33;21.75;;;;;;;20.89;63.74;99018.75;4981895;28;20050;-70
2021/08/31 04:56:56;;;;;;;42.22;22.83;;;;;;;20.84;63.90;99019.03;4999885;28;20042;-69
2021/08/31 04:59:24;;;;;;;38.20;23.20;;;;;;;20.93;63.92;99013.28;4964531;28;20052;-68
2021/08/31 05:01:56;;;;;;;39.47;22.50;;;;;;;20.85;63.86;99003.16;5002238;28;20054;-69
2021/08/31 05:04:28;;;;;;;42.78;22.15;;;;;;;20.71;63.65;98978.63;5001297;28;20073;-70
2021/08/31 05:06:56;;;;;;;40.00;23.25;;;;;;;20.72;64.02;98981.03;4969502;28;20042;-70
2021/08/31 05:09:25;;;;;;;36.92;22.73;;;;;;;20.85;64.07;99011.50;4969932;28;20096;-70
2021/08/31 05:11:57;;;;;;;44.85;25.98;;;;;;;20.86;64.31;99024.22;4963566;28;20042;-70
2021/08/31 05:14:23;;;;;;;44.10;26.52;;;;;;;20.88;64.36;99033.81;5002740;28;20050;-70
2021/08/31 05:16:49;;;;;;;48.17;29.42;;;;;;;20.87;64.26;99032.19;4969526;28;20073;-70
2021/08/31 05:19:16;;;;;;;;;;;;;;;20.90;64.24;99028.69;5001976;28;20096;-70
2021/08/31 05:21:43;;;;;;;54.50;31.20;;;;;;;20.75;63.97;99016.41;4968383;28;19926;-71
2021/08/31 05:24:12;;;;;;;52.33;30.13;;;;;;;20.86;64.04;99029.78;5001754;28;20141;-70
2021/08/31 05:26:39;;;;;;;42.63;27.23;;;;;;;20.89;63.99;99031.81;4983253;28;20058;-71
2021/08/31 05:29:05;;;;;;;44.53;25.92;;;;;;;20.90;63.64;99034.25;4985270;28;20045;-69
2021/08/31 05:31:31;;;;;;;43.53;25.75;;;;;;;20.86;63.82;99019.47;5001982;28;20065;-70
2021/08/31 05:33:57;;;;;;;44.28;25.10;;;;;;;20.95;63.77;99013.72;5002653;28;20073;-71
2021/08/31 05:36:24;;;;;;;39.83;23.95;;;;;;;20.69;64.01;98974.25;4976468;28;20053;-70
2021/08/31 05:38:50;;;;;;;47.40;24.23;;;;;;;20.69;64.06;98976.22;5000244;28;20046;-71
2021/08/31 05:41:16;;;;;;;42.47;23.48;;;;;;;20.95;63.83;99017.28;5000561;28;20748;-71
2021/08/31 05:43:43;;;;;;;42.33;24.88;;;;;;;20.78;63.91;98989.88;4968959;28;20082;-71
2021/08/31 05:46:18;;;;;;;45.63;25.13;;;;;;;20.74;63.95;98984.25;5001561;28;20046;-76
2021/08/31 05:48:44;;;;;;;50.33;26.05;;;;;;;20.91;63.95;99004.47;4982820;28;20136;-70
2021/08/31 05:51:12;;;;;;;44.15;26.13;;;;;;;20.79;63.63;98977.59;4968663;28;20046;-69
2021/08/31 05:53:38;;;;;;;46.63;25.90;;;;;;;21.02;63.34;99008.28;4998979;28;20047;-69
2021/08/31 05:56:04;;;;;;;44.05;25.50;;;;;;;20.97;63.38;99000.25;4982994;28;20132;-69
2021/08/31 05:58:31;;;;;;;42.90;25.55;;;;;;;21.01;63.24;98994.78;5000699;28;20057;-70
2021/08/31 06:00:58;;;;;;;46.17;27.27;;;;;;;20.87;63.20;98976.63;4967889;28;20053;-69
2021/08/31 06:03:24;;;;;;;45.08;26.88;;;;;;;21.04;63.12;99014.28;4998760;28;20144;-70
2021/08/31 06:05:50;;;;;;;50.50;28.60;;;;;;;21.00;62.98;98998.72;4967428;28;20053;-70
2021/08/31 06:08:16;;;;;;;49.90;28.48;;;;;;;21.06;63.00;99006.38;4996767;28;20088;-69
2021/08/31 06:10:43;;;;;;;49.10;27.83;;;;;;;21.04;63.05;99005.94;4967386;28;20458;-71
2021/08/31 06:13:10;;;;;;;55.28;29.83;;;;;;;21.02;63.06;99010.28;4979079;28;20108;-68
2021/08/31 06:15:36;;;;;;;46.17;28.45;;;;;;;21.03;62.63;99006.34;4981932;28;20062;-70
2021/08/31 06:18:03;;;;;;;45.70;26.70;;;;;;;20.94;62.56;98981.53;4966842;28;20048;-70
2021/08/31 06:20:30;;;;;;;50.67;27.45;;;;;;;21.09;62.80;99004.84;4999532;28;20491;-70
2021/08/31 06:22:59;;;;;;;47.15;27.13;;;;;;;21.08;63.00;99006.03;4964835;28;20129;-70
2021/08/31 06:25:27;;;;;;;48.55;27.13;;;;;;;21.11;62.67;99000.56;4967297;28;20046;-70
2021/08/31 06:27:56;;;;;;;48.08;26.75;;;;;;;21.08;62.37;98984.63;4998664;28;20052;-70
2021/08/31 06:30:22;;;;;;;40.00;26.50;;;;;;;21.19;62.43;99007.06;4997990;28;20570;-69
2021/08/31 06:32:50;;;;;;;43.15;25.17;;;;;;;20.79;62.23;98930.41;4985923;28;20042;-70
2021/08/31 06:35:18;;;;;;;39.25;26.23;;;;;;;21.23;62.16;98994.03;4982800;28;20041;-70
2021/08/31 06:37:45;;;;;;;40.72;25.40;;;;;;;21.33;62.18;98986.28;4998924;28;20077;-69
2021/08/31 06:40:12;;;;;;;43.43;25.53;;;;;;;21.39;61.91;99005.06;4983220;28;20050;-70
2021/08/31 06:42:38;;;;;;;;;;;;;;;21.46;61.62;98998.03;4998421;28;20317;-69
2021/08/31 06:45:05;;;;;;;44.90;22.70;;;;;;;21.45;61.76;98993.66;4967817;28;20057;-70
2021/08/31 06:47:39;;;;;;;36.50;22.63;;;;;;;21.30;61.74;98959.19;4980729;28;20045;-82
2021/08/31 06:50:36;;;;;;;42.17;23.30;;;;;;;21.38;61.73;98958.97;4954880;28;20050;-87
2021/08/31 06:54:01;;;;;;;42.53;23.73;;;;;;;21.20;61.83;98919.72;4951934;28;20050;-86
2021/08/31 06:57:06;;;;;;;36.20;19.70;;;;;;;21.38;61.59;98925.59;4892417;28;20582;-84
2021/08/31 07:06:43;;;;;;;47.25;25.65;;;;;;;21.83;61.48;98996.75;4983397;28;20166;-77
2021/08/31 07:09:26;;;;;;;46.35;25.30;;;;;;;21.79;60.90;99000.28;4965079;28;20050;-77
2021/08/31 07:12:11;;;;;;;42.50;23.35;;;;;;;21.36;60.69;98911.28;4954373;28;20058;-78
2021/08/31 07:14:47;;;;;;;40.97;24.38;;;;;;;21.43;60.52;98916.16;4950353;28;22065;-76
2021/08/31 07:17:36;;;;;;;36.05;22.13;;;;;;;21.63;60.67;98936.38;4943428;28;20522;-77
2021/08/31 07:20:19;;;;;;;39.63;20.40;;;;;;;21.66;60.52;98907.06;4964294;28;20050;-77
2021/08/31 07:23:28;;;;;;;44.47;22.27;;;;;;;21.75;60.48;98907.59;4954150;28;20245;-76
2021/08/31 07:26:23;;;;;;;34.95;20.58;;;;;;;21.91;60.51;98918.59;4961935;28;20402;-77
2021/08/31 07:29:29;;;;;;;;;;;;;;;;;;;;;
2021/08/31 07:32:32;;;;;;;36.90;21.67;;;;;;;22.19;59.49;98950.81;4961338;28;20495;-77
2021/08/31 07:35:29;;;;;;;41.40;21.90;;;;;;;22.34;59.58;98973.31;4907995;29;20450;-78
2021/08/31 07:38:10;;;;;;;;;;;;;;;21.95;59.31;98901.97;4901005;29;20058;-78
2021/08/31 07:41:24;;;;;;;35.80;20.15;;;;;;;22.40;59.39;98969.03;4935675;29;20086;-77
2021/08/31 07:44:09;;;;;;;39.60;21.15;;;;;;;22.01;58.88;98891.28;4921182;29;20115;-77
2021/08/31 07:47:01;;;;;;;40.50;21.65;;;;;;;22.14;59.00;98898.25;4917194;29;20086;-77
2021/08/31 07:49:48;;;;;;;35.50;21.05;;;;;;;22.47;58.78;98938.50;4907544;29;20067;-76
2021/08/31 07:52:47;;;;;;;39.38;19.80;;;;;;;22.24;58.61;98875.34;4920637;29;20052;-78
2021/08/31 07:55:42;;;;;;;36.10;21.50;;;;;;;22.33;58.33;98866.69;4890948;29;20147;-77
2021/08/31 07:58:21;;;;;;;33.30;17.55;;;;;;;22.62;57.95;98908.88;4921454;29;20044;-77
2021/08/31 08:00:50;;;;;;;37.80;20.85;;;;;;;22.94;57.78;98944.69;4905704;29;20586;-74
2021/08/31 08:03:26;;;;;;;41.78;21.63;;;;;;;22.52;57.82;98868.56;4909840;29;20103;-74
2021/08/31 08:06:39;;;;;;;41.72;19.63;;;;;;;22.84;57.62;98911.91;4927042;28;20133;-76
2021/08/31 08:09:16;;;;;;;32.55;17.08;;;;;;;22.71;58.38;98869.59;4969759;28;20117;-75
2021/08/31 08:11:56;;;;;;;28.30;16.88;;;;;;;23.13;58.08;98903.88;4941096;28;20134;-77
2021/08/31 08:14:23;;;;;;;34.08;21.23;;;;;;;23.21;57.76;98916.72;4962945;28;20062;-78
2021/08/31 08:16:51;;;;;;;39.85;20.30;;;;;;;23.24;57.35;98906.78;4965303;28;20585;-78
2021/08/31 08:19:17;;;;;;;37.08;18.25;;;;;;;23.45;57.53;98920.16;4971267;28;20499;-77
2021/08/31 08:21:58;;;;;;;37.90;19.33;;;;;;;23.31;57.12;98881.81;4961133;28;20755;-76
2021/08/31 08:24:28;;;;;;;34.15;17.98;;;;;;;23.58;56.90;98905.94;4947194;28;20588;-77
2021/08/31 08:26:58;;;;;;;39.65;18.77;;;;;;;23.78;56.98;98926.06;4969570;28;20459;-77
2021/08/31 08:29:28;;;;;;;36.88;18.73;;;;;;;23.39;56.59;98852.00;4955338;28;20050;-77
2021/08/31 08:32:00;;;;;;;36.13;19.48;;;;;;;23.67;56.39;98886.91;4952816;28;20146;-78
2021/08/31 08:34:26;;;;;;;31.52;18.90;;;;;;;23.98;56.24;98920.22;4965020;28;20059;-78
2021/08/31 08:36:59;;;;;;;40.00;19.67;;;;;;;23.75;55.85;98880.19;4987278;28;20058;-76
2021/08/31 08:39:30;;;;;;;39.13;19.23;;;;;;;23.89;55.20;98893.47;4969183;28;20046;-77
2021/08/31 08:42:22;;;;;;;31.50;18.70;;;;;;;24.03;54.56;98903.94;4983935;28;20144;-78
2021/08/31 08:44:49;;;;;;;30.52;18.42;;;;;;;24.09;54.42;98898.81;4951870;28;20045;-77
2021/08/31 08:47:17;;;;;;;29.55;15.95;;;;;;;23.84;54.18;98846.34;4972891;28;20458;-77
2021/08/31 08:49:46;;;;;;;32.00;17.65;;;;;;;23.92;54.26;98842.44;4980349;28;20525;-77
2021/08/31 08:52:13;;;;;;;34.17;17.80;;;;;;;24.26;54.18;98879.75;4980143;28;20046;-76
2021/08/31 08:54:41;;;;;;;34.55;18.70;;;;;;;24.17;53.93;98860.56;4973081;28;20057;-77
2021/08/31 08:57:09;;;;;;;36.70;19.08;;;;;;;24.36;53.73;98870.63;4965733;28;20055;-77
2021/08/31 08:59:41;;;;;;;43.85;19.05;;;;;;;24.67;53.48;98903.88;4984923;28;20511;-77
2021/08/31 09:02:10;;;;;;;42.20;19.02;;;;;;;24.35;52.93;98844.69;4975348;23;20595;-75
2021/08/31 09:04:50;;;;;;;37.05;17.48;;;;;;;24.73;52.90;98888.34;5012883;28;20046;-74
2021/08/31 09:07:22;;;;;;;32.05;18.77;;;;;;;24.77;52.75;98884.41;5012112;28;20135;-75
2021/08/31 09:09:50;;;;;;;32.75;17.42;;;;;;;24.47;52.62;98829.56;5000049;28;20295;-75
2021/08/31 09:12:36;;;;;;;32.65;18.30;;;;;;;24.93;51.87;98886.03;5013299;28;20109;-74
2021/08/31 09:15:37;;;;;;;32.75;17.90;;;;;;;25.01;51.93;98884.88;5029070;28;20052;-72
2021/08/31 09:18:43;;;;;;;29.90;18.00;;;;;;;25.05;51.34;98876.47;4969946;28;20143;-73
2021/08/31 09:21:50;;;;;;;27.15;16.88;;;;;;;24.80;51.58;98829.72;5019591;28;20040;-72
2021/08/31 09:24:20;;;;;;;33.05;17.33;;;;;;;25.15;51.59;98852.56;5022467;28;20040;-74
2021/08/31 09:26:50;;;;;;;35.92;17.27;;;;;;;25.34;51.08;98877.34;4990014;28;20172;-75
2021/08/31 09:29:19;;;;;;;31.38;17.17;;;;;;;25.42;50.95;98874.53;5005780;28;20425;-74
2021/08/31 09:31:52;;;;;;;32.83;15.77;;;;;;;25.40;50.85;98852.59;5005786;28;20552;-74
2021/08/31 09:34:32;;;;;;;33.65;16.63;;;;;;;25.46;51.19;98834.19;5008834;28;20052;-73
2021/08/31 09:37:29;;;;;;;33.45;17.67;;;;;;;25.52;50.53;98831.81;5040440;28;20405;-76
2021/08/31 09:40:07;;;;;;;30.13;16.33;;;;;;;25.87;49.74;98874.97;5022178;28;20053;-74
2021/08/31 09:42:35;;;;;;;35.17;17.42;;;;;;;25.89;49.80;98852.97;5025406;28;20044;-74
2021/08/31 09:45:03;;;;;;;32.58;16.02;;;;;;;25.89;49.39;98844.56;5006858;28;20540;-74
2021/08/31 09:47:37;;;;;;;28.25;16.23;;;;;;;25.97;49.43;98834.16;5006939;28;20148;-73
2021/08/31 09:50:29;;;;;;;33.40;16.45;;;;;;;26.36;49.41;98877.28;5007122;28;20056;-77
2021/08/31 09:53:13;;;;;;;29.05;15.60;;;;;;;26.47;49.20;98858.44;5023134;28;20055;-74
2021/08/31 09:55:42;;;;;;;37.03;17.80;;;;;;;26.46;48.51;98840.03;4992733;28;20567;-74
2021/08/31 09:58:16;;;;;;;26.60;16.20;;;;;;;26.57;48.92;98839.22;5007080;28;20080;-75
2021/08/31 10:00:45;;;;;;;32.05;16.17;;;;;;;26.52;48.70;98806.78;4982510;28;20464;-74
2021/08/31 10:03:15;;;;;;;33.67;16.63;;;;;;;26.60;48.59;98808.34;4990340;28;20051;-74
2021/08/31 10:05:47;;;;;;;31.35;16.73;;;;;;;26.67;48.29;98801.13;5038757;28;20056;-75
2021/08/31 10:08:21;;;;;;;32.30;17.65;;;;;;;26.96;47.17;98857.06;5005896;28;20571;-77
2021/08/31 10:10:52;;;;;;;26.33;16.17;;;;;;;26.69;47.03;98802.28;5006113;28;20049;-76
2021/08/31 10:13:21;;;;;;;30.15;16.15;;;;;;;26.74;47.22;98801.88;5023776;28;20049;-76
2021/08/31 10:15:58;;;;;;;31.20;16.73;;;;;;;27.05;47.14;98837.75;5007359;28;20055;-76
2021/08/31 10:18:30;;;;;;;32.97;16.48;;;;;;;27.22;47.19;98847.25;5006784;28;20041;-75
2021/08/31 10:21:01;;;;;;;31.98;15.57;;;;;;;27.11;46.74;98832.50;5039692;28;20063;-75
2021/08/31 10:23:37;;;;;;;38.10;17.45;;;;;;;27.12;46.12;98836.91;4991690;28;20076;-76
2021/08/31 10:26:27;;;;;;;;;;;;;;;27.32;46.49;98866.03;4995537;28;20060;-75
2021/08/31 10:29:25;;;;;;;33.53;15.60;;;;;;;27.15;45.99;98850.91;5028376;28;19931;-74
2021/08/31 10:31:56;;;;;;;31.25;15.45;;;;;;;27.16;45.90;98846.91;4992676;28;20037;-69
2021/08/31 10:34:42;;;;;;;33.58;15.25;;;;;;;27.25;45.58;98857.66;5039640;28;20080;-69
2021/08/31 10:37:12;;;;;;;25.23;15.48;;;;;;;27.16;45.31;98846.09;5023330;28;20044;-68
2021/08/31 10:39:48;;;;;;;30.65;15.80;;;;;;;27.27;45.35;98862.88;5038418;28;20453;-70
2021/08/31 10:42:46;;;;;;;28.85;15.02;;;;;;;27.13;45.59;98838.50;5039936;28;20128;-69
2021/08/31 10:45:30;;;;;;;31.60;16.10;;;;;;;27.41;45.86;98851.53;5000376;28;20535;-70
2021/08/31 10:48:02;;;;;;;26.98;15.30;;;;;;;27.21;46.20;98814.81;5039818;28;20128;-69
2021/08/31 10:50:30;;;;;;;31.30;15.30;;;;;;;27.44;45.79;98841.47;5005299;28;20049;-69
2021/08/31 10:53:05;;;;;;;34.47;14.32;;;;;;;27.68;45.88;98855.75;4989284;28;20136;-70
2021/08/31 10:55:44;;;;;;;31.95;15.25;;;;;;;27.77;45.41;98852.47;4978562;28;20144;-69
2021/08/31 10:58:12;;;;;;;25.58;14.48;;;;;;;27.81;45.82;98854.03;5017540;28;20048;-69
2021/08/31 11:00:54;;;;;;;27.75;15.27;;;;;;;27.83;46.19;98850.78;5018470;28;20087;-68
2021/08/31 11:03:35;;;;;;;30.67;15.80;;;;;;;27.90;46.42;98842.31;5020137;28;20052;-69
2021/08/31 11:06:31;;;;;;;29.75;13.90;;;;;;;27.96;46.61;98835.00;5020345;28;20041;-69
2021/08/31 11:09:11;;;;;;;24.52;14.93;;;;;;;28.09;46.15;98848.53;5038152;28;20060;-70
2021/08/31 11:11:40;;;;;;;29.77;15.00;;;;;;;28.21;45.59;98839.59;5036281;28;20049;-69
2021/08/31 11:14:10;;;;;;;31.35;15.90;;;;;;;28.37;45.30;98835.41;5020986;28;20375;-69
2021/08/31 11:16:42;;;;;;;25.55;15.13;;;;;;;28.48;44.95;98835.28;5005449;28;20045;-71
2021/08/31 11:19:26;;;;;;;31.58;14.32;;;;;;;28.16;42.93;98793.09;5022376;28;20044;-70
2021/08/31 11:21:56;;;;;;;30.45;15.30;;;;;;;28.50;42.92;98830.84;5021914;28;20092;-70
2021/08/31 11:24:24;;;;;;;23.73;13.27;;;;;;;28.64;42.57;98829.03;5020535;28;20048;-69
2021/08/31 11:27:03;;;;;;;37.47;14.63;;;;;;;28.86;42.63;98838.81;5019881;28;20041;-69
2021/08/31 11:29:29;;;;;;;29.00;14.07;;;;;;;29.00;42.26;98825.75;5005737;28;20046;-69
2021/08/31 11:32:04;;;;;;;25.75;14.00;;;;;;;29.19;41.71;98823.47;5021615;28;21101;-70
2021/08/31 11:34:33;;;;;;;30.52;13.68;;;;;;;29.30;41.26;98813.63;4988946;28;20472;-68
2021/08/31 11:37:05;;;;;;;34.72;14.88;;;;;;;29.35;41.09;98797.47;5036885;28;20049;-71
2021/08/31 11:39:34;;;;;;;32.22;13.82;;;;;;;29.56;40.58;98811.22;5021626;28;20056;-72
2021/08/31 11:42:02;;;;;;;28.55;12.85;;;;;;;29.67;39.80;98782.09;4988513;28;20207;-72
2021/08/31 11:44:29;;;;;;;23.90;12.10;;;;;;;30.10;38.86;98812.25;5039386;28;20505;-72
2021/08/31 11:46:56;;;;;;;24.43;12.30;;;;;;;30.31;38.28;98806.63;5039352;28;20416;-73